LAN8202 SBGR-SPJC
Flight info
| Callsign | LAN8202 |
|---|---|
| Flight time | N/A |
| Altitude | 34000 |
| Route | EGEVA UM415 JUL UV18 AND UT336 VUPUD DCT PEROV |
| Aircraft | B763/H-SDE3FGHIM3RWXY/LB1 |
Departure
| Time | N/A |
|---|---|
| Airport | São Paulo/Guarulhos–Governor André Franco Montoro International Airport (SBGR) |
Arrival
| Time | 2026-05-08 00:21 |
|---|---|
| Airport | Jorge Chávez International Airport (SPJC) |
| Time | Latitude | Longitude | Altitude | Speed | Heading |
|---|---|---|---|---|---|
| 2026-05-07 23:48 | -13.11116 | -75.02393 | 37280 ft | 445 kts | 306° |
| 2026-05-07 23:48 | -13.09224 | -75.04918 | 37283 ft | 445 kts | 306° |
| 2026-05-07 23:49 | -13.05489 | -75.09898 | 37245 ft | 437 kts | 306° |
| 2026-05-07 23:49 | -13.01807 | -75.14804 | 37182 ft | 433 kts | 306° |
| 2026-05-07 23:50 | -12.98099 | -75.19744 | 37122 ft | 437 kts | 306° |
| 2026-05-07 23:50 | -12.94404 | -75.24662 | 37069 ft | 437 kts | 306° |
| 2026-05-07 23:51 | -12.90671 | -75.29629 | 37029 ft | 436 kts | 305° |
| 2026-05-07 23:51 | -12.87540 | -75.33793 | 37013 ft | 437 kts | 305° |
| 2026-05-07 23:52 | -12.83526 | -75.39127 | 36972 ft | 438 kts | 305° |
| 2026-05-07 23:52 | -12.79499 | -75.44476 | 36937 ft | 437 kts | 305° |
| 2026-05-07 23:53 | -12.75821 | -75.49358 | 36912 ft | 427 kts | 305° |
| 2026-05-07 23:53 | -12.73989 | -75.51789 | 36767 ft | 425 kts | 305° |
| 2026-05-07 23:53 | -12.72199 | -75.54165 | 36699 ft | 417 kts | 305° |
| 2026-05-07 23:54 | -12.70463 | -75.56465 | 36582 ft | 405 kts | 305° |
| 2026-05-07 23:54 | -12.68731 | -75.58763 | 36157 ft | 403 kts | 305° |
| 2026-05-07 23:54 | -12.67024 | -75.61028 | 35658 ft | 403 kts | 305° |
| 2026-05-07 23:54 | -12.65307 | -75.63304 | 35090 ft | 404 kts | 305° |
| 2026-05-07 23:55 | -12.63685 | -75.65454 | 34489 ft | 406 kts | 305° |
| 2026-05-07 23:55 | -12.62088 | -75.67569 | 33904 ft | 408 kts | 305° |
| 2026-05-07 23:55 | -12.60258 | -75.69994 | 33236 ft | 410 kts | 305° |
| 2026-05-07 23:55 | -12.58509 | -75.72308 | 32562 ft | 411 kts | 305° |
| 2026-05-07 23:56 | -12.56774 | -75.74605 | 31977 ft | 412 kts | 305° |
| 2026-05-07 23:56 | -12.55007 | -75.76943 | 31404 ft | 416 kts | 305° |
| 2026-05-07 23:56 | -12.53219 | -75.79311 | 30852 ft | 422 kts | 305° |
| 2026-05-07 23:56 | -12.51403 | -75.81712 | 30323 ft | 427 kts | 305° |
| 2026-05-07 23:57 | -12.49592 | -75.84106 | 29825 ft | 426 kts | 305° |
| 2026-05-07 23:57 | -12.47782 | -75.86498 | 29332 ft | 422 kts | 305° |
| 2026-05-07 23:57 | -12.45998 | -75.88856 | 28848 ft | 416 kts | 305° |
| 2026-05-07 23:57 | -12.44220 | -75.91205 | 28378 ft | 413 kts | 305° |
| 2026-05-07 23:58 | -12.42458 | -75.93534 | 27937 ft | 411 kts | 305° |
| 2026-05-07 23:58 | -12.40712 | -75.95840 | 27504 ft | 409 kts | 305° |
| 2026-05-07 23:58 | -12.38983 | -75.98123 | 27083 ft | 407 kts | 305° |
| 2026-05-07 23:58 | -12.37234 | -76.00433 | 26672 ft | 405 kts | 305° |
| 2026-05-07 23:59 | -12.35651 | -76.02816 | 26270 ft | 401 kts | 296° |
| 2026-05-07 23:59 | -12.34538 | -76.05428 | 25854 ft | 400 kts | 286° |
| 2026-05-07 23:59 | -12.33836 | -76.08169 | 25309 ft | 404 kts | 282° |
| 2026-05-07 23:59 | -12.33183 | -76.10997 | 24737 ft | 404 kts | 282° |
| 2026-05-08 00:00 | -12.32562 | -76.13771 | 24144 ft | 404 kts | 282° |
| 2026-05-08 00:00 | -12.31943 | -76.16574 | 23517 ft | 405 kts | 281° |
| 2026-05-08 00:00 | -12.31322 | -76.19415 | 22830 ft | 408 kts | 281° |
| 2026-05-08 00:00 | -12.30707 | -76.22239 | 22186 ft | 410 kts | 282° |
| 2026-05-08 00:01 | -12.30095 | -76.25066 | 21888 ft | 401 kts | 281° |
| 2026-05-08 00:01 | -12.29500 | -76.27834 | 21456 ft | 399 kts | 282° |
| 2026-05-08 00:01 | -12.28908 | -76.30592 | 21069 ft | 396 kts | 282° |
| 2026-05-08 00:01 | -12.28318 | -76.33332 | 20643 ft | 394 kts | 282° |
| 2026-05-08 00:02 | -12.27733 | -76.36052 | 20194 ft | 392 kts | 282° |
| 2026-05-08 00:02 | -12.27148 | -76.38772 | 19721 ft | 390 kts | 282° |
| 2026-05-08 00:02 | -12.26563 | -76.41490 | 19210 ft | 390 kts | 282° |
| 2026-05-08 00:02 | -12.25977 | -76.44209 | 18639 ft | 391 kts | 282° |
| 2026-05-08 00:03 | -12.25395 | -76.46902 | 18122 ft | 389 kts | 282° |
| 2026-05-08 00:03 | -12.24812 | -76.49598 | 17695 ft | 385 kts | 282° |
| 2026-05-08 00:03 | -12.24232 | -76.52279 | 17249 ft | 381 kts | 282° |
| 2026-05-08 00:03 | -12.23667 | -76.54887 | 16810 ft | 377 kts | 282° |
| 2026-05-08 00:04 | -12.23101 | -76.57501 | 16455 ft | 370 kts | 282° |
| 2026-05-08 00:04 | -12.22554 | -76.60023 | 16389 ft | 351 kts | 282° |
| 2026-05-08 00:04 | -12.22039 | -76.62399 | 16381 ft | 334 kts | 282° |
| 2026-05-08 00:04 | -12.21540 | -76.64699 | 16388 ft | 327 kts | 282° |
| 2026-05-08 00:05 | -12.21044 | -76.66966 | 16127 ft | 337 kts | 283° |
| 2026-05-08 00:05 | -12.20529 | -76.69318 | 15754 ft | 339 kts | 283° |
| 2026-05-08 00:05 | -12.20016 | -76.71664 | 15354 ft | 339 kts | 283° |
| 2026-05-08 00:05 | -12.19505 | -76.73996 | 14876 ft | 338 kts | 283° |
| 2026-05-08 00:06 | -12.18990 | -76.76341 | 14426 ft | 337 kts | 283° |
| 2026-05-08 00:06 | -12.18475 | -76.78694 | 13977 ft | 335 kts | 283° |
| 2026-05-08 00:06 | -12.17973 | -76.80983 | 13563 ft | 326 kts | 283° |
| 2026-05-08 00:06 | -12.17485 | -76.83202 | 13256 ft | 317 kts | 282° |
| 2026-05-08 00:07 | -12.17019 | -76.85330 | 12986 ft | 319 kts | 282° |
| 2026-05-08 00:07 | -12.16535 | -76.87534 | 12627 ft | 317 kts | 282° |
| 2026-05-08 00:07 | -12.16054 | -76.89722 | 12262 ft | 316 kts | 282° |
| 2026-05-08 00:07 | -12.15568 | -76.91933 | 11943 ft | 312 kts | 282° |
| 2026-05-08 00:08 | -12.15093 | -76.94099 | 11499 ft | 315 kts | 282° |
| 2026-05-08 00:08 | -12.14618 | -76.96272 | 11200 ft | 312 kts | 282° |
| 2026-05-08 00:08 | -12.14148 | -76.98418 | 10882 ft | 310 kts | 282° |
| 2026-05-08 00:08 | -12.13677 | -77.00568 | 10565 ft | 307 kts | 282° |
| 2026-05-08 00:09 | -12.13214 | -77.02686 | 10270 ft | 304 kts | 282° |
| 2026-05-08 00:09 | -12.12751 | -77.04800 | 10050 ft | 298 kts | 282° |
| 2026-05-08 00:09 | -12.12309 | -77.06816 | 9991 ft | 290 kts | 282° |
| 2026-05-08 00:09 | -12.11862 | -77.08859 | 9685 ft | 296 kts | 282° |
| 2026-05-08 00:10 | -12.11411 | -77.10914 | 9324 ft | 295 kts | 282° |
| 2026-05-08 00:10 | -12.10961 | -77.12966 | 9007 ft | 292 kts | 282° |
| 2026-05-08 00:10 | -12.10522 | -77.14967 | 8781 ft | 286 kts | 282° |
| 2026-05-08 00:10 | -12.10079 | -77.16939 | 8687 ft | 283 kts | 287° |
| 2026-05-08 00:11 | -12.09175 | -77.18685 | 8587 ft | 275 kts | 314° |
| 2026-05-08 00:11 | -12.07643 | -77.19849 | 8326 ft | 277 kts | 332° |
| 2026-05-08 00:11 | -12.05931 | -77.20773 | 7982 ft | 278 kts | 332° |
| 2026-05-08 00:11 | -12.04191 | -77.21694 | 7565 ft | 283 kts | 333° |
| 2026-05-08 00:12 | -12.02415 | -77.22603 | 7166 ft | 285 kts | 334° |
| 2026-05-08 00:12 | -12.00684 | -77.23500 | 7116 ft | 273 kts | 333° |
| 2026-05-08 00:12 | -11.98970 | -77.24404 | 6734 ft | 276 kts | 333° |
| 2026-05-08 00:12 | -11.97245 | -77.25308 | 6294 ft | 280 kts | 333° |
| 2026-05-08 00:13 | -11.95527 | -77.26207 | 6252 ft | 267 kts | 333° |
| 2026-05-08 00:13 | -11.93945 | -77.27032 | 6290 ft | 249 kts | 333° |
| 2026-05-08 00:13 | -11.92391 | -77.27840 | 5922 ft | 250 kts | 334° |
| 2026-05-08 00:13 | -11.90821 | -77.28614 | 5666 ft | 248 kts | 334° |
| 2026-05-08 00:14 | -11.89352 | -77.29336 | 5411 ft | 246 kts | 334° |
| 2026-05-08 00:14 | -11.87977 | -77.30014 | 5173 ft | 245 kts | 334° |
| 2026-05-08 00:14 | -11.86620 | -77.30611 | 4921 ft | 244 kts | 345° |
| 2026-05-08 00:14 | -11.84689 | -77.30541 | 4501 ft | 242 kts | 21° |
| 2026-05-08 00:15 | -11.83332 | -77.29549 | 4137 ft | 240 kts | 53° |
| 2026-05-08 00:15 | -11.82523 | -77.28117 | 4121 ft | 224 kts | 62° |
| 2026-05-08 00:15 | -11.81806 | -77.26745 | 3957 ft | 218 kts | 62° |
| 2026-05-08 00:15 | -11.81124 | -77.25352 | 3588 ft | 221 kts | 70° |
| 2026-05-08 00:16 | -11.80986 | -77.23785 | 3102 ft | 227 kts | 104° |
| 2026-05-08 00:16 | -11.81743 | -77.22411 | 2820 ft | 223 kts | 137° |
| 2026-05-08 00:16 | -11.82975 | -77.21481 | 2552 ft | 220 kts | 144° |
| 2026-05-08 00:16 | -11.84238 | -77.20598 | 2240 ft | 216 kts | 147° |
| 2026-05-08 00:17 | -11.85512 | -77.19817 | 2041 ft | 203 kts | 150° |
| 2026-05-08 00:17 | -11.86713 | -77.19134 | 1958 ft | 193 kts | 152° |
| 2026-05-08 00:17 | -11.87885 | -77.18504 | 1905 ft | 187 kts | 153° |
| 2026-05-08 00:17 | -11.89011 | -77.17918 | 1897 ft | 175 kts | 153° |
| 2026-05-08 00:18 | -11.90094 | -77.17368 | 1835 ft | 167 kts | 154° |
| 2026-05-08 00:18 | -11.91107 | -77.16863 | 1797 ft | 151 kts | 154° |
| 2026-05-08 00:18 | -11.92010 | -77.16414 | 1681 ft | 138 kts | 154° |
| 2026-05-08 00:18 | -11.92832 | -77.16007 | 1608 ft | 120 kts | 155° |
| 2026-05-08 00:19 | -11.93619 | -77.15622 | 1555 ft | 136 kts | 155° |
| 2026-05-08 00:19 | -11.94530 | -77.15173 | 1777 ft | 155 kts | 155° |
| 2026-05-08 00:19 | -11.95556 | -77.14666 | 1988 ft | 171 kts | 157° |
| 2026-05-08 00:19 | -11.96573 | -77.14186 | 2104 ft | 151 kts | 155° |
| 2026-05-08 00:20 | -11.97589 | -77.13681 | 1294 ft | 173 kts | 154° |
| 2026-05-08 00:20 | -11.98681 | -77.13151 | 763 ft | 170 kts | 155° |
| 2026-05-08 00:20 | -11.99694 | -77.12658 | 464 ft | 154 kts | 153° |
| 2026-05-08 00:20 | -12.00637 | -77.12188 | 208 ft | 150 kts | 155° |
| 2026-05-08 00:21 | -12.01558 | -77.11739 | 138 ft | 135 kts | 156° |
| 2026-05-08 00:21 | -12.02273 | -77.11389 | 138 ft | 93 kts | 154° |
| 2026-05-08 00:21 | -12.02696 | -77.11184 | 137 ft | 28 kts | 150° |
| 2026-05-08 00:21 | -12.02813 | -77.11081 | 137 ft | 18 kts | 131° |
| 2026-05-08 00:22 | -12.02889 | -77.10984 | 137 ft | 15 kts | 126° |
| 2026-05-08 00:22 | -12.02946 | -77.10899 | 137 ft | 14 kts | 124° |
| 2026-05-08 00:22 | -12.02957 | -77.10883 | 137 ft | 2 kts | 124° |
| 2026-05-08 00:22 | -12.02971 | -77.10862 | 137 ft | 4 kts | 124° |
| 2026-05-08 00:23 | -12.02983 | -77.10841 | 137 ft | 3 kts | 111° |
| 2026-05-08 00:23 | -12.02982 | -77.10827 | 137 ft | 2 kts | 70° |
| 2026-05-08 00:23 | -12.02964 | -77.10816 | 137 ft | 4 kts | 7° |
| 2026-05-08 00:23 | -12.02923 | -77.10812 | 137 ft | 7 kts | 7° |
| 2026-05-08 00:24 | -12.02858 | -77.10805 | 138 ft | 10 kts | 356° |
| 2026-05-08 00:24 | -12.02794 | -77.10832 | 138 ft | 11 kts | 333° |
| 2026-05-08 00:24 | -12.02724 | -77.10868 | 138 ft | 11 kts | 334° |
| 2026-05-08 00:24 | -12.02685 | -77.10888 | 138 ft | 4 kts | 334° |
| 2026-05-08 00:25 | -12.02650 | -77.10903 | 138 ft | 8 kts | 338° |
| 2026-05-08 00:25 | -12.02566 | -77.10943 | 138 ft | 15 kts | 334° |
| 2026-05-08 00:25 | -12.02476 | -77.10995 | 138 ft | 4 kts | 334° |
| 2026-05-08 00:25 | -12.02450 | -77.10989 | 138 ft | 6 kts | 46° |
| 2026-05-08 00:26 | -12.02422 | -77.10943 | 138 ft | 7 kts | 61° |
| 2026-05-08 00:26 | -12.02406 | -77.10911 | 138 ft | 0 kts | 64° |
| 2026-05-08 00:26 | -12.02404 | -77.10906 | 138 ft | 0 kts | 64° |
| 2026-05-08 00:26 | -12.02404 | -77.10907 | 138 ft | 0 kts | 64° |